• Join FlightAware (Why Join?)
  • Login
  • US Flag 
09:30AM EDT


 

Airport Tracker/Info


-or-


 

Live Flight TrackerFlight Track Log ✈ UAL1202 ✈ 20-Jun-2013 ✈ KSFO - KIAD

Flight Track Log - Related Links

Times and Time Zones

All times are in EDT time to prevent confusion due to time zone crossing. See the UAL1202 flight status page for this flight to view local times or setup timezone preferences in your user account.

Time Position Orientation Groundspeed Altitude Reporting Facility
EDT Latitude Longitude Course Direction KTS MPH feet Rate Location/Type
11:25AM 37.6561 -122.3631 134° Southeast 183 211 1,700  Level Oakland Center
11:26AM 37.7075 -122.3878 339° North 233 268 3,100 1,740 Climbing Oakland Center
11:27AM 37.4209 -122.3294 113° Southeast  Level FlightAware Approximate
11:27AM 37.6794 -122.4564 243° Southwest 256 295 5,300  Level Oakland Center
11:28AM 37.3284 -122.2008 136° Southeast  Level FlightAware Approximate
11:28AM 37.6017 -122.4783 193° South 282 325 7,700  Level Oakland Center
11:29AM 37.2308 -122.0791 127° Southeast  Level FlightAware Approximate
11:29AM 37.5225 -122.4581 169° South 306 352 10,200  Level Oakland Center
11:30AM 37.1416 -121.9462 134° Southeast  Level FlightAware Approximate
11:30AM 37.4569 -122.3750 135° Southeast 336 387 11,300  Level Oakland Center
11:31AM 37.3775 -122.2500 129° Southeast 382 440 13,100 1,440 Climbing Oakland Center
11:32AM 37.3072 -122.1319 127° Southeast 416 479 14,300 1,320 Climbing Oakland Center
11:33AM 37.2314 -122.0089 128° Southeast 443 510 15,900 1,500 Climbing Oakland Center
11:34AM 37.1525 -121.8806 128° Southeast 459 528 17,400 1,380 Climbing Oakland Center
11:35AM 37.0708 -121.7492 128° Southeast 474 545 18,800 1,260 Climbing Oakland Center
11:36AM 36.9864 -121.6178 129° Southeast 483 556 20,100 1,260 Climbing Oakland Center
11:37AM 36.9008 -121.4803 128° Southeast 496 571 21,500 1,320 Climbing Oakland Center
11:38AM 36.8114 -121.3381 128° Southeast 507 583 22,900 1,260 Climbing Oakland Center
11:39AM 36.7222 -121.1992 129° Southeast 513 590 24,200 1,260 Climbing Oakland Center
11:40AM 36.6147 -121.0294 128° Southeast 518 596 25,500 1,140 Climbing Oakland Center
11:41AM 36.5228 -120.8867 129° Southeast 525 604 26,600 1,320 Climbing Oakland Center
11:42AM 36.4319 -120.7450 129° Southeast 525 604 28,300 1,380 Climbing Oakland Center
11:43AM 36.3428 -120.6056 128° Southeast 518 596 29,500 1,140 Climbing Oakland Center
11:44AM 36.2539 -120.4681 129° Southeast 512 589 30,700 720 Climbing Oakland Center
11:45AM 36.1636 -120.3303 129° Southeast 513 590 31,000 120 Climbing Oakland Center
11:46AM 36.0733 -120.1925 129° Southeast 514 592 31,000  Level Oakland Center
11:47AM 35.9828 -120.0558 129° Southeast 512 589 31,000  Level Oakland Center
11:48AM 35.8942 -119.9203 129° Southeast 507 583 31,000  Level Oakland Center
11:49AM 35.8039 -119.7839 129° Southeast 509 586 31,000  Level Oakland Center
11:50AM 35.6975 -119.6233 129° Southeast 504 580 31,000  Level Oakland Center
11:51AM 35.6069 -119.4889 130° Southeast 506 582 31,000  Level Oakland Center
11:52AM 35.5175 -119.3558 130° Southeast 504 580 31,000  Level Oakland Center
11:53AM 35.4289 -119.2228 129° Southeast 504 580 31,000  Level Oakland Center
11:54AM 35.3403 -119.0914 130° Southeast 501 577 31,000  Level Oakland Center
11:56AM 35.2514 -118.9608 130° Southeast 500 575 31,000  Level Oakland Center
11:57AM 35.1631 -118.8297 129° Southeast 499 574 31,000  Level Oakland Center
11:58AM 35.0744 -118.6994 130° Southeast 498 573 31,000  Level Oakland Center
11:59AM 34.9483 -118.5194 130° Southeast 495 570 31,000  Level Los Angeles Center
12:00PM 34.8556 -118.3869 130° Southeast 497 572 31,000  Level Los Angeles Center
12:01PM 34.7489 -118.2336 130° Southeast 499 574 31,000  Level Los Angeles Center
12:02PM 34.6614 -118.1053 130° Southeast 498 573 31,000  Level Los Angeles Center
12:03PM 34.6467 -117.9392 96° East 512 589 31,000  Level Los Angeles Center
12:04PM 34.6625 -117.7697 83° East 510 587 31,000  Level Los Angeles Center
12:05PM 34.6803 -117.5986 83° East 513 590 31,000  Level Los Angeles Center
12:06PM 34.7017 -117.3947 83° East 513 590 31,000  Level Los Angeles Center
12:07PM 34.7203 -117.2256 82° East 512 589 31,000  Level Los Angeles Center
12:08PM 34.7386 -117.0536 83° East 516 594 31,000  Level Los Angeles Center
12:09PM 34.7558 -116.8836 83° East 512 589 31,000  Level Los Angeles Center
12:10PM 34.7761 -116.6800 83° East 510 587 31,000  Level Los Angeles Center
12:11PM 34.7922 -116.5106 83° East 509 586 31,000  Level Los Angeles Center
12:12PM 34.8058 -116.3394 84° East 510 587 31,000  Level Los Angeles Center
12:13PM 34.8144 -116.1686 86° East 509 586 31,000  Level Los Angeles Center
12:15PM 34.8247 -115.9972 86° East 509 586 31,000  Level Los Angeles Center
12:16PM 34.8356 -115.8244 86° East 513 590 31,000  Level Los Angeles Center
12:17PM 34.8483 -115.6186 86° East 511 588 31,000  Level Los Angeles Center
12:18PM 34.8611 -115.4047 86° East 509 586 31,000  Level Los Angeles Center
12:19PM 34.8711 -115.2347 86° East 506 582 31,000  Level Los Angeles Center
12:20PM 34.8797 -115.0603 87° East 512 589 31,000  Level Los Angeles Center
12:21PM 34.8892 -114.8889 86° East 512 589 31,000  Level Los Angeles Center
12:22PM 34.8981 -114.7158 86° East 512 589 31,000  Level Los Angeles Center
12:23PM 34.9089 -114.5075 86° East 517 595 31,000  Level Los Angeles Center
12:24PM 34.9169 -114.3358 87° East 509 586 31,000  Level Los Angeles Center
12:25PM 34.9244 -114.1644 87° East 508 585 31,000  Level Los Angeles Center
12:26PM 34.9331 -113.9925 86° East 509 586 31,000  Level Los Angeles Center
12:27PM 34.9411 -113.8067 87° East 507 583 31,000  Level Los Angeles Center
12:28PM 34.9489 -113.6367 87° East 508 585 31,000  Level Los Angeles Center
12:29PM 34.9564 -113.4669 87° East 508 585 31,000  Level Los Angeles Center
12:30PM 34.9625 -113.2981 87° East 506 582 31,000  Level Los Angeles Center
12:31PM 34.9703 -113.0933 87° East 511 588 31,000  Level Los Angeles Center
12:32PM 34.9761 -112.9233 88° East 507 583 31,000  Level Albuquerque Center
12:33PM 34.9822 -112.7547 87° East 507 583 31,000  Level Albuquerque Center
12:34PM 34.9894 -112.5531 87° East 505 581 31,000  Level Albuquerque Center
12:35PM 34.9942 -112.3844 88° East 504 580 31,000  Level Albuquerque Center
12:36PM 34.9992 -112.2142 88° East 506 582 31,000  Level Albuquerque Center
12:38PM 35.0047 -112.0447 88° East 505 581 31,000  Level Albuquerque Center
12:39PM 35.0094 -111.8753 88° East 506 582 31,000  Level Albuquerque Center
12:40PM 35.0147 -111.6717 88° East 505 581 31,000  Level Albuquerque Center
12:41PM 35.0189 -111.5008 88° East 504 580 31,000  Level Albuquerque Center
12:42PM 35.0231 -111.3303 88° East 504 580 31,000  Level Albuquerque Center
12:43PM 35.0267 -111.1575 88° East 508 585 31,000  Level Albuquerque Center
12:44PM 35.0297 -110.9853 89° East 507 583 31,000  Level Albuquerque Center
12:45PM 35.0333 -110.8136 88° East 507 583 31,000  Level Albuquerque Center
12:46PM 35.0378 -110.6233 88° East 504 580 31,000  Level Albuquerque Center
12:47PM 35.0400 -110.4308 89° East 507 583 31,000  Level Albuquerque Center
12:48PM 35.0425 -110.2669 89° East 506 582 31,000  Level Albuquerque Center
12:49PM 35.0461 -110.0761 89° East 506 582 31,000  Level Albuquerque Center
12:50PM 35.0481 -109.9108 89° East 508 585 31,000  Level Albuquerque Center
12:51PM 35.0497 -109.7200 89° East 506 582 31,000  Level Albuquerque Center
12:52PM 35.0519 -109.5569 89° East 506 582 31,000  Level Albuquerque Center
12:53PM 35.0533 -109.3664 89° East 504 580 31,000  Level Albuquerque Center
12:54PM 35.0542 -109.2033 90° East 505 581 31,000  Level Albuquerque Center
12:55PM 35.0558 -109.0136 89° East 503 579 31,000  Level Albuquerque Center
12:56PM 35.0561 -108.8517 90° East 501 577 31,000  Level Albuquerque Center
12:57PM 35.0575 -108.6631 89° East 500 575 31,000  Level Albuquerque Center
12:58PM 35.0808 -108.5039 80° East 501 577 31,000  Level Albuquerque Center
12:59PM 35.1172 -108.3197 76° East 501 577 31,000  Level Albuquerque Center
01:00PM 35.1481 -108.1622 76° East 501 577 31,000  Level Albuquerque Center
01:01PM 35.1839 -107.9775 77° East 501 577 31,000  Level Albuquerque Center
01:02PM 35.2153 -107.8208 76° East 499 574 31,000  Level Albuquerque Center
01:03PM 35.2508 -107.6369 77° East 499 574 31,000  Level Albuquerque Center
01:04PM 35.2803 -107.4794 77° East 496 571 31,000  Level Albuquerque Center
01:05PM 35.3122 -107.3133 77° East 497 572 31,000  Level Albuquerque Center
01:06PM 35.3453 -107.1369 77° East 501 577 31,000  Level Albuquerque Center
01:08PM 35.3739 -106.9792 77° East 498 573 31,000  Level Albuquerque Center
01:09PM 35.4081 -106.8094 76° East 500 575 31,000  Level Albuquerque Center
01:10PM 35.4375 -106.6414 78° East 500 575 31,000  Level Albuquerque Center
01:11PM 35.4678 -106.4753 77° East 498 573 31,000  Level Albuquerque Center
01:12PM 35.5031 -106.2750 78° East 499 574 31,000  Level Albuquerque Center
01:13PM 35.5339 -106.1086 77° East 499 574 31,000  Level Albuquerque Center
01:14PM 35.5633 -105.9419 78° East 498 573 31,000  Level Albuquerque Center
01:15PM 35.5942 -105.7642 78° East 499 574 31,000  Level Albuquerque Center
01:16PM 35.6228 -105.5953 78° East 501 577 31,000  Level Albuquerque Center
01:17PM 35.6503 -105.4267 79° East 499 574 31,000  Level Albuquerque Center
01:18PM 35.6794 -105.2550 78° East 505 581 31,000  Level Albuquerque Center
01:19PM 35.7050 -105.0864 79° East 500 575 31,000  Level Albuquerque Center
01:20PM 35.7336 -104.9139 78° East 505 581 31,000  Level Albuquerque Center
01:21PM 35.7669 -104.7108 79° East 511 588 31,000  Level Albuquerque Center
01:22PM 35.7956 -104.5369 78° East 511 588 31,000  Level Albuquerque Center
01:23PM 35.8244 -104.3625 78° East 512 589 31,000  Level Albuquerque Center
01:24PM 35.8522 -104.1886 79° East 511 588 31,000  Level Albuquerque Center
01:25PM 35.8797 -104.0131 79° East 513 590 31,000  Level Albuquerque Center
01:26PM 35.9078 -103.8375 79° East 514 592 31,000  Level Albuquerque Center
01:27PM 35.9344 -103.6608 79° East 517 595 31,000  Level Albuquerque Center
01:28PM 35.9617 -103.4844 79° East 517 595 31,000  Level Albuquerque Center
01:29PM 35.9878 -103.3083 80° East 517 595 31,000  Level Albuquerque Center
01:30PM 36.0197 -103.1022 79° East 519 597 31,000  Level Albuquerque Center
01:31PM 36.0453 -102.9258 80° East 518 596 31,000  Level Albuquerque Center
01:32PM 36.0714 -102.7456 80° East 518 596 31,000  Level Albuquerque Center
01:33PM 36.0972 -102.5703 80° East 518 596 31,000  Level Albuquerque Center
01:34PM 36.1217 -102.3950 80° East 516 594 31,000  Level Albuquerque Center
01:35PM 36.1458 -102.2206 80° East 515 593 31,000  Level Albuquerque Center
01:36PM 36.1708 -102.0458 80° East 514 592 31,000  Level Albuquerque Center
01:38PM 36.1953 -101.8692 80° East 518 596 31,000  Level Albuquerque Center
01:39PM 36.2242 -101.6589 80° East 516 594 31,000  Level Albuquerque Center
01:40PM 36.2475 -101.4825 81° East 517 595 31,000  Level Albuquerque Center
01:41PM 36.2711 -101.3100 80° East 512 589 31,000  Level Albuquerque Center
01:42PM 36.2942 -101.1369 81° East 508 585 31,000  Level Albuquerque Center
01:43PM 36.3158 -100.9625 81° East 511 588 31,000  Level Albuquerque Center
01:44PM 36.3392 -100.7881 81° East 506 582 31,000  Level Albuquerque Center
01:45PM 36.3611 -100.6156 81° East 505 581 31,000  Level Albuquerque Center
01:46PM 36.3825 -100.4422 81° East 505 581 31,000  Level Albuquerque Center
01:47PM 36.4128 -100.2008 81° East 504 580 31,000  Level Kansas City Center
01:48PM 36.4328 -100.0275 82° East 504 580 31,000  Level Kansas City Center
01:49PM 36.4547 -99.8531 81° East 508 585 31,000  Level Kansas City Center
01:50PM 36.4756 -99.6797 81° East 506 582 31,000  Level Kansas City Center
01:51PM 36.5003 -99.4694 82° East 508 585 31,000  Level Kansas City Center
01:52PM 36.5194 -99.2950 82° East 505 581 31,000  Level Kansas City Center
01:53PM 36.5400 -99.1206 82° East 506 582 31,000  Level Kansas City Center
01:54PM 36.5600 -98.9461 82° East 506 582 31,000  Level Kansas City Center
01:55PM 36.5794 -98.7736 82° East 503 579 31,000  Level Kansas City Center
01:56PM 36.5992 -98.5986 82° East 505 581 31,000  Level Kansas City Center
01:57PM 36.6175 -98.4258 82° East 503 579 31,000  Level Kansas City Center
01:58PM 36.6353 -98.2536 83° East 501 577 31,000  Level Kansas City Center
02:00PM 36.6581 -98.0475 82° East 500 575 31,000  Level Kansas City Center
02:01PM 36.6736 -97.8725 84° East 505 581 31,000  Level Kansas City Center
02:02PM 36.6911 -97.7256 82° East 496 571 31,000  Level Kansas City Center
02:03PM 36.7078 -97.5522 83° East 500 575 31,000  Level Kansas City Center
02:04PM 36.7275 -97.3606 83° East 499 574 31,000  Level Kansas City Center
02:05PM 36.7436 -97.1933 83° East 492 566 31,000  Level Kansas City Center
02:06PM 36.7706 -97.0247 79° East 486 559 31,000  Level Kansas City Center
02:07PM 36.7986 -96.8597 78° East 486 559 31,000  Level Kansas City Center
02:08PM 36.8339 -96.6575 78° East 493 567 31,000  Level Kansas City Center
02:09PM 36.8631 -96.4903 78° East 493 567 31,000  Level Kansas City Center
02:10PM 36.8903 -96.3225 78° East 491 565 31,000  Level Kansas City Center
02:11PM 36.9186 -96.1547 78° East 491 565 31,000  Level Kansas City Center
02:12PM 36.9469 -95.9853 78° East 493 567 31,000  Level Kansas City Center
02:13PM 36.9747 -95.8167 78° East 493 567 31,000  Level Kansas City Center
02:14PM 37.0028 -95.6478 78° East 493 567 31,000  Level Kansas City Center
02:15PM 37.0297 -95.4764 79° East 496 571 31,000  Level Kansas City Center
02:16PM 37.0633 -95.2761 78° East 488 562 31,000  Level Kansas City Center
02:17PM 37.0906 -95.1075 79° East 488 562 31,000  Level Kansas City Center
02:18PM 37.1167 -94.9381 79° East 492 566 31,000  Level Kansas City Center
02:19PM 37.1433 -94.7689 79° East 493 567 31,000  Level Kansas City Center
02:20PM 37.1697 -94.6000 79° East 492 566 31,000  Level Kansas City Center
02:21PM 37.1947 -94.4286 80° East 496 571 31,000  Level Kansas City Center
02:22PM 37.2211 -94.2589 79° East 495 570 31,000  Level Kansas City Center
02:23PM 37.2511 -94.0572 79° East 496 571 31,000  Level Kansas City Center
02:24PM 37.2764 -93.8869 79° East 496 571 31,000  Level Kansas City Center
02:25PM 37.3011 -93.7164 80° East 497 572 31,000  Level Kansas City Center
02:26PM 37.3256 -93.5461 80° East 497 572 31,000  Level Kansas City Center
02:27PM 37.3492 -93.3758 80° East 496 571 31,000  Level Kansas City Center
02:28PM 37.3717 -93.2083 80° East 491 565 31,000  Level Kansas City Center
02:29PM 37.3936 -93.0033 82° East 492 566 31,000  Level Kansas City Center
02:31PM 37.4125 -92.8336 82° East 492 566 31,000  Level Kansas City Center
02:32PM 37.4306 -92.6628 82° East 495 570 31,000  Level Kansas City Center
02:33PM 37.4497 -92.4928 82° East 494 568 31,000  Level Kansas City Center
02:34PM 37.4678 -92.3256 82° East 491 565 31,000  Level Kansas City Center
02:35PM 37.4864 -92.1569 82° East 489 563 31,000  Level Kansas City Center
02:36PM 37.5069 -91.9533 83° East 491 565 31,000  Level Kansas City Center
02:37PM 37.5244 -91.7831 83° East 492 566 31,000  Level Kansas City Center
02:38PM 37.5425 -91.6125 82° East 492 566 31,000  Level Kansas City Center
02:39PM 37.5597 -91.4408 83° East 493 567 31,000  Level Kansas City Center
02:40PM 37.5767 -91.2697 83° East 494 568 31,000  Level Kansas City Center
02:41PM 37.5933 -91.0981 83° East 494 568 31,000  Level Kansas City Center
02:42PM 37.6125 -90.8900 83° East 497 572 31,000  Level Kansas City Center
02:43PM 37.6292 -90.7253 83° East 495 570 31,000  Level Kansas City Center
02:44PM 37.6447 -90.5531 83° East 496 571 31,000  Level Kansas City Center
02:45PM 37.6597 -90.3806 84° East 497 572 31,000  Level Kansas City Center
02:46PM 37.6747 -90.2078 84° East 498 573 31,000  Level Kansas City Center
02:47PM 37.6983 -90.0014 82° East 499 574 31,000  Level Kansas City Center
02:48PM 37.7181 -89.8289 82° East 499 574 31,000  Level Kansas City Center
02:49PM 37.7375 -89.6558 82° East 501 577 31,000  Level Kansas City Center
02:50PM 37.7556 -89.4828 82° East 499 574 31,000  Level Kansas City Center
02:51PM 37.7744 -89.2975 83° East 498 573 31,000  Level Kansas City Center
02:52PM 37.7933 -89.1244 82° East 496 571 31,000  Level Kansas City Center
02:53PM 37.8111 -88.9242 84° East 493 567 31,000  Level Kansas City Center
02:54PM 37.8261 -88.7631 83° East 494 568 31,000  Level Kansas City Center
02:55PM 37.8500 -88.5786 81° East 496 571 31,000  Level Kansas City Center
02:56PM 37.8675 -88.4039 83° East 499 574 31,000  Level Kansas City Center
02:57PM 37.8831 -88.2292 84° East 499 574 31,000  Level Kansas City Center
02:58PM 37.8981 -88.0900 82° East 498 573 31,000  Level Indianapolis Center
02:59PM 37.9167 -87.8811 83° East 498 573 31,000  Level Indianapolis Center
03:00PM 37.9325 -87.7089 83° East 494 568 31,000  Level Indianapolis Center
03:01PM 37.9483 -87.5353 83° East 495 570 31,000  Level Indianapolis Center
03:02PM 37.9628 -87.3628 84° East 495 570 31,000  Level Indianapolis Center
03:03PM 37.9769 -87.1906 84° East 495 570 31,000  Level Indianapolis Center
03:04PM 37.9947 -86.9839 84° East 497 572 31,000  Level Indianapolis Center
03:05PM 38.0086 -86.8125 84° East 495 570 31,000  Level Indianapolis Center
03:07PM 38.0233 -86.6406 84° East 494 568 31,000  Level Indianapolis Center
03:08PM 38.0367 -86.4692 84° East 491 565 31,000  Level Indianapolis Center
03:09PM 38.0503 -86.2981 84° East 490 564 31,000  Level Indianapolis Center
03:10PM 38.0636 -86.1250 84° East 492 566 31,000  Level Indianapolis Center
03:11PM 38.0789 -85.9189 85° East 488 562 31,000  Level Indianapolis Center
03:12PM 38.0942 -85.7467 84° East 489 563 31,000  Level Indianapolis Center
03:13PM 38.0994 -85.5731 88° East 494 568 31,000  Level Indianapolis Center
03:14PM 38.0783 -85.4025 99° East 489 563 31,000 480 Level Indianapolis Center
03:15PM 38.0517 -85.2347 101° East 485 558 32,100 1,260 Climbing Indianapolis Center
03:16PM 38.0208 -85.0406 101° East 482 555 33,700 1,260 Climbing Indianapolis Center
03:17PM 37.9758 -84.8814 110° East 480 552 34,800 600 Climbing Indianapolis Center
03:18PM 37.9200 -84.7228 114° Southeast 486 559 35,000 60 Climbing Indianapolis Center
03:19PM 37.8636 -84.5611 114° Southeast 497 572 35,000  Level Indianapolis Center
03:20PM 37.8075 -84.3983 114° Southeast 500 575 35,000  Level Indianapolis Center
03:21PM 37.7425 -84.2100 114° Southeast 500 575 35,000  Level Indianapolis Center
03:22PM 37.6861 -84.0464 113° Southeast 506 582 35,000  Level Indianapolis Center
03:23PM 37.6508 -83.8769 105° East 502 578 35,000  Level Indianapolis Center
03:24PM 37.6617 -83.6972 86° East 507 583 35,000  Level Indianapolis Center
03:25PM 37.6714 -83.5161 86° East 512 589 35,000  Level Indianapolis Center
03:26PM 37.6831 -83.3400 85° East 505 581 35,000  Level Indianapolis Center
03:27PM 37.7392 -83.1556 69° East 483 556 35,000  Level Indianapolis Center
03:28PM 37.8044 -83.0064 61° Northeast 482 555 35,000  Level Indianapolis Center
03:29PM 37.8675 -82.8656 60° Northeast 461 531 35,000  Level Indianapolis Center
03:30PM 37.9308 -82.7267 60° Northeast 454 522 35,000  Level Indianapolis Center
03:31PM 37.9925 -82.5864 61° Northeast 456 525 35,000  Level Indianapolis Center
03:32PM 38.0553 -82.4467 60° Northeast 457 526 35,000  Level Indianapolis Center
03:33PM 38.1158 -82.3058 61° Northeast 461 531 35,000  Level Indianapolis Center
03:34PM 38.1925 -82.1339 60° Northeast 465 535 35,000  Level Indianapolis Center
03:35PM 38.2553 -81.9892 61° Northeast 469 540 35,000  Level Indianapolis Center
03:37PM 38.3172 -81.8456 61° Northeast 466 536 35,000  Level Indianapolis Center
03:38PM 38.3478 -81.6875 76° East 475 547 35,000  Level Indianapolis Center
03:39PM 38.3419 -81.5242 93° East 469 540 35,000 -180 Level Indianapolis Center
03:40PM 38.3356 -81.3294 92° East 465 535 34,700 -780 Descending Indianapolis Center
03:41PM 38.3283 -81.1633 93° East 471 542 33,400 -840 Descending Indianapolis Center
03:42PM 38.3242 -80.9983 92° East 469 540 33,000 -180 Descending Indianapolis Center
03:44PM 38.3111 -80.6639 93° East 475 547 33,000  Level Indianapolis Center
03:45PM 38.3061 -80.4958 92° East 476 548 33,000  Level Indianapolis Center
03:46PM 38.3314 -80.2997 81° East 475 547 33,000  Level Indianapolis Center
03:47PM 38.3614 -80.1283 77° East 475 547 33,000 -180 Level Indianapolis Center
03:48PM 38.3953 -79.9714 75° East 473 544 32,700 -1,260 Descending Indianapolis Center
03:49PM 38.4336 -79.8167 72° East 468 539 30,400 -2,340 Descending Indianapolis Center
03:50PM 38.4689 -79.6589 74° East 473 544 27,900 -2,280 Descending Indianapolis Center
03:51PM 38.5106 -79.4758 74° East 461 531 25,700 -2,460 Descending Indianapolis Center
03:52PM 38.5414 -79.3217 76° East 461 531 22,800 -2,460 Descending Indianapolis Center
03:53PM 38.5708 -79.1528 77° East 448 516 20,600 -1,860 Descending Washington Center
03:54PM 38.5958 -79.0131 77° East 429 494 18,900 -1,740 Descending Washington Center
03:55PM 38.6183 -78.8786 78° East 408 470 17,100 -1,800 Descending Washington Center
03:56PM 38.6447 -78.7469 76° East 386 444 15,300 -1,680 Descending Washington Center
03:57PM 38.6750 -78.6231 73° East 374 430 13,800 -1,560 Descending Washington Center
03:58PM 38.7031 -78.5072 73° East 352 405 12,300 -1,320 Descending Washington Center
03:59PM 38.7264 -78.3992 74° East 327 376 11,200 -1,020 Descending Washington Center
04:00PM 38.7742 -78.3183 53° Northeast 287 330 10,300 -960 Descending Washington Center
04:01PM 38.8258 -78.2378 51° Northeast 287 330 9,300 -840 Descending Washington Center
04:02PM 38.8572 -78.1428 67° East 287 330 8,600 -1,080 Descending Washington Center
04:03PM 38.8864 -78.0450 69° East 287 330 7,200 -1,380 Descending Washington Center
04:04PM 38.9153 -77.9528 68° East 287 330 6,000 -660 Descending Washington Center
04:05PM 38.9419 -77.8683 68° East 287 330 6,000  Level Washington Center
04:06PM 38.9647 -77.7675 74° East 280 322 6,000  Level Washington Center
04:07PM 38.9558 -77.6736 97° East 275 316 6,000  Level Washington Center
04:08PM 39.0000 -77.5833 58° Northeast 251 289 6,000  Level Potomac TRACON
04:09PM 39.0833 -77.5667 North 211 243 6,000 -60 Level Potomac TRACON
04:10PM 39.1333 -77.5667 360° North 212 244 5,900 -600 Descending Potomac TRACON
04:11PM 39.1500 -77.5000 72° East 208 239 4,800 -900 Descending Potomac TRACON
04:12PM 39.1167 -77.4667 142° Southeast 170 196 4,100 -720 Descending Potomac TRACON